PWSweather.com
Personal Weather Stations
Station Observations
KILMORRI1
Goose Lake, Morris, IL 60450

Goose LakeMorris, IL 60450

Lat: 41.34, Lon: -88.3

Elevation: 523

Station Type:

Latest ConditionsUpdated 3:10:03 AM CDT Sunday, Jun 16, 2019
Currently Today's Max Today's Min Today's Average
Temperature 65.5°F18.6°C 67.3°F19.6°C 65.5°F18.6°C 66.5°F19.2°C
Dew Point 64.3°F17.9°C 66.4°F19.1°C 64.3°F17.9°C 65.5°F18.6°C
Winds Calm Calm 4.6 mph -7.4 kmh - - 1.5 mph 2.4 kmh
Wind Gusts 1.2 mph1.9 kmh 10.4 mph16.7 kmh - -
Humidity 96% 97% 96% 97%
Pressure 29.68 in1005.1 mb 29.69 in1005.4 mb 29.64 in1003.7 mb -
Precipitation - 0.19 in4.8 mm - -
Hour Temp Dew Point Humidity Winds Wind Gusts Pressure Precip Precip Rate Daily Precip Total
03:10 AM 65.5°F18.6°C 64.3°F17.9°C 96% Calm Calm 1.2 mph1.9 kmh 29.68 in1005.1 mb - 0.00 in0.0 mm 0.19 in4.8 mm
03:00 AM 65.6°F18.7°C 64.4°F18.0°C 96% 1.2 mph E1.9 kmh E 2.3 mph3.7 kmh 29.67 in1004.7 mb - 0.00 in0.0 mm 0.19 in4.8 mm
02:50 AM 65.8°F18.8°C 64.6°F18.1°C 96% 1.2 mph ESE1.9 kmh ESE 1.2 mph1.9 kmh 29.66 in1004.4 mb - 0.00 in0.0 mm 0.19 in4.8 mm
02:40 AM 65.9°F18.8°C 64.7°F18.2°C 96% Calm Calm 3.5 mph5.6 kmh 29.67 in1004.7 mb - 0.01 in0.3 mm 0.19 in4.8 mm
02:30 AM 66.0°F18.9°C 64.8°F18.2°C 96% Calm Calm 1.2 mph1.9 kmh 29.67 in1004.7 mb - 0.01 in0.3 mm 0.19 in4.8 mm
02:20 AM 66.2°F19.0°C 65.0°F18.3°C 96% 1.2 mph ENE1.9 kmh ENE 2.3 mph3.7 kmh 29.68 in1005.1 mb - 0.02 in0.5 mm 0.19 in4.8 mm
02:10 AM 66.3°F19.1°C 65.2°F18.4°C 96% 1.2 mph NE1.9 kmh NE 1.2 mph1.9 kmh 29.68 in1005.1 mb - 0.05 in1.3 mm 0.19 in4.8 mm
02:00 AM 66.5°F19.2°C 65.6°F18.7°C 97% 1.2 mph ENE1.9 kmh ENE 1.2 mph1.9 kmh 29.68 in1005.1 mb - 0.10 in2.5 mm 0.19 in4.8 mm
01:50 AM 66.5°F19.2°C 65.6°F18.7°C 97% 1.2 mph E1.9 kmh E 1.2 mph1.9 kmh 29.67 in1004.7 mb - 0.16 in4.1 mm 0.19 in4.8 mm
01:40 AM 66.5°F19.2°C 65.6°F18.7°C 97% 2.3 mph E3.7 kmh E 3.5 mph5.6 kmh 29.67 in1004.7 mb - 0.17 in4.3 mm 0.18 in4.6 mm
01:30 AM 66.5°F19.2°C 65.6°F18.7°C 97% 1.2 mph E1.9 kmh E 3.5 mph5.6 kmh 29.66 in1004.4 mb - 0.18 in4.6 mm 0.18 in4.6 mm
01:20 AM 66.6°F19.2°C 65.4°F18.6°C 96% 4.6 mph E7.4 kmh E 8.1 mph13.0 kmh 29.64 in1003.7 mb - 0.17 in4.3 mm 0.17 in4.3 mm
01:10 AM 66.8°F19.3°C 65.6°F18.7°C 96% 3.5 mph E5.6 kmh E 5.8 mph9.3 kmh 29.66 in1004.4 mb - 0.14 in3.6 mm 0.14 in3.6 mm
01:00 AM 67.0°F19.4°C 66.1°F18.9°C 97% Calm Calm 1.2 mph1.9 kmh 29.69 in1005.4 mb - 0.10 in2.5 mm 0.10 in2.5 mm
12:50 AM 67.2°F19.6°C 66.3°F19.1°C 97% Calm Calm -- 29.69 in1005.4 mb - 0.03 in0.8 mm 0.03 in0.8 mm
12:40 AM 67.3°F19.6°C 66.4°F19.1°C 97% Calm Calm -- 29.69 in1005.4 mb - 0.01 in0.3 mm 0.01 in0.3 mm
12:30 AM 67.3°F19.6°C 66.4°F19.1°C 97% 1.2 mph E1.9 kmh E 3.5 mph5.6 kmh 29.68 in1005.1 mb - 0.00 in0.0 mm 0.00 in0.0 mm
12:20 AM 67.1°F19.5°C 66.2°F19.0°C 97% 2.3 mph E3.7 kmh E 3.5 mph5.6 kmh 29.68 in1005.1 mb - 0.00 in0.0 mm 0.00 in0.0 mm
12:10 AM 66.7°F19.3°C 65.8°F18.8°C 97% 4.6 mph E7.4 kmh E 10.4 mph16.7 kmh 29.67 in1004.7 mb - 0.00 in0.0 mm 0.00 in0.0 mm
12:00 AM 66.6°F19.2°C 65.7°F18.7°C 97% 3.5 mph E5.6 kmh E 6.9 mph11.1 kmh 29.68 in1005.1 mb - 0.00 in0.0 mm 0.00 in0.0 mm